Perkinsville, Vermont
Current Conditions -  °F | °C
As of 9:54 PM on Friday 24 Oct 2014 (Local Time) from KVSF Reporting Station
Overcast Overcast  
Wind Chill: 42°   Ceiling: 4100
Heat Index: 46°   Visibility: 10mi
Dew Point: 40°   Wind: 7mph
Humidity: 79%   Direction: 250°WSW
Pressure: 29.8"   Gusts: NA
Location:  43.37°N, 72.51°W
Report Text: KVSF 250154Z AUTO 25006KT 10SM FEW027 BKN041 OVC055 08/04 A2980 RMK AO2 SLP095 T00780044
Loading
Personal Weather Stations






























Interactive Weather Map New forecast layout! Learn more

10-Day Weather Forecast

Advertisements
Track Severe Weather on mobile